YAYE/AYQ METAR and TAF weather

Enter ICAO airport designator
Station Type Date Time Source
YAYE METAR 2022/08/04 06:14 UTC NOAA

YAYE 040614Z AUTO 29016G26KT 9999 // NCD 23/03 Q1008


Station Type Date Time Source
YAYE Decoded METAR 2022/08/04 06:14 UTC NOAA

Ayers Rock, Australia (YAYE) 25-11S 130-58E
Aug 04, 2022 - 02:14 AM EDT / 2022.08.04 0614 UTC
Wind: from the WNW (290 degrees) at 18 MPH (16 KT) gusting to 30 MPH (26 KT):0
Visibility: greater than 7 mile(s):0
Temperature: 73 F (23 C)
Dew Point: 37 F (3 C)
Relative Humidity: 26%
Pressure (altimeter): 29.77 in. Hg (1008 hPa)
ob: YAYE 040614Z AUTO 29016G26KT 9999 // NCD 23/03 Q1008
cycle: 6

Station Type Date Time Source
YAYE TAF UTC NOAA

Error!

Example: see airport list